Latest Coastal Weather Observations for Stenhouse Bay

IDS60701

Issued at 8:55 am CST Friday 29 August 2014 (issued every 10 minutes, with the page automatically refreshed every 10 minutes)

About coastal observations | Map of coastal stations | Coastal observations for SA | Marine services | Other Formats
Station Details ID: 022049 Name: STENHOUSE BAY Lat: -35.28 Lon: 136.94 Height: 42.0 m
Data from the previous 72 hours. | See also: Recent months at Stenhouse Bay
Date/Time
CST
Temp

°C
Wind Pressure Rain
since 9am
mm
Weather Cloud Vis
km
Sea
Height
m
Swell
Dir
 
Speed
knots
Gust
knots
hPa Trend Height
m
Period
s
Dir
29/08:30am 15.3 N 5 6 1027.8 - 0.0 - - - - - - -
29/08:00am 13.8 N 5 7 1027.6 - 0.0 - - - - - - -
29/07:30am 12.9 N 6 10 1027.3 - 0.0 - - - - - - -
29/07:00am 11.8 N 6 8 1027.2 - 0.0 - - - - - - -
29/06:30am 12.1 N 7 9 1026.8 - 0.0 - - - - - - -
29/06:00am 12.4 NNE 7 9 1026.4 - 0.0 - - - - - - -
29/05:30am 11.0 N 6 8 1026.2 - 0.0 - - - - - - -
29/05:00am 10.9 N 7 9 1026.0 - 0.0 - - - - - - -
29/04:30am 10.7 N 7 9 1025.8 - 0.0 - - - - - - -
29/04:00am 11.1 N 5 6 1026.0 - 0.0 - - - - - - -
29/03:30am 12.7 N 5 7 1026.2 - 0.0 - - - - - - -
29/03:00am 13.2 NE 5 6 1026.7 - 0.0 - - - - - - -
29/02:30am 13.0 NNE 5 6 1026.7 - 0.0 - - - - - - -
29/02:00am 13.3 NE 6 7 1027.1 - 0.0 - - - - - - -
29/01:30am 13.7 NE 5 8 1027.2 - 0.0 - - - - - - -
29/01:00am 13.5 ENE 5 7 1027.3 - 0.0 - - - - - - -
29/12:30am 13.1 ENE 5 7 1027.3 - 0.0 - - - - - - -
29/12:00am 13.0 NE 3 4 1027.3 - 0.0 - - - - - - -
 
Date/Time
CST
Temp

°C
Wind Pressure Rain
since 9am
mm
Weather Cloud Vis
km
Sea
Height
m
Swell
Dir
 
Speed
knots
Gust
knots
hPa Trend Height
m
Period
s
Dir
28/11:30pm 13.4 NE 3 4 1027.4 - 0.0 - - - - - - -
28/11:00pm 13.3 ENE 4 7 1027.4 - 0.0 - - - - - - -
28/10:30pm 13.2 ENE 4 5 1027.6 - 0.0 - - - - - - -
28/10:00pm 13.1 NE 5 7 1027.7 - 0.0 - - - - - - -
28/09:30pm 13.7 ENE 5 7 1027.8 - 0.0 - - - - - - -
28/09:00pm 13.8 E 4 5 1027.9 - 0.0 - - - - - - -
28/08:30pm 13.7 E 3 5 1027.9 - 0.0 - - - - - - -
28/08:00pm 13.9 E 5 7 1027.6 - 0.0 - - - - - - -
28/07:30pm 14.2 ESE 9 10 1027.3 - 0.0 - - - - - - -
28/07:00pm 14.3 SE 8 10 1027.1 - 0.0 - - - - - - -
28/06:30pm 14.5 ESE 6 8 1026.8 - 0.0 - - - - - - -
28/06:00pm 15.3 NE 3 4 1026.5 - 0.0 - - - - - - -
28/05:30pm 17.0 NNE 2 4 1026.6 - 0.0 - - - - - - -
28/05:00pm 19.9 N 3 6 1026.7 - 0.0 - - - - - - -
28/04:30pm 20.7 NNW 7 10 1026.6 - 0.0 - - - - - - -
28/04:00pm 21.1 N 9 12 1026.4 - 0.0 - - - - - - -
28/03:30pm 21.9 N 9 14 1026.5 - 0.0 - - - - - - -
28/03:00pm 22.2 N 10 13 1026.6 - 0.0 - - - - - - -
28/02:30pm 23.1 N 8 12 1026.7 - 0.0 - - - - - - -
28/02:00pm 22.7 N 8 11 1026.8 - 0.0 - - - - - - -
28/01:30pm 22.2 N 9 13 1026.9 - 0.0 - - - - - - -
28/01:00pm 22.4 N 8 11 1027.2 - 0.0 - - - - - - -
28/12:30pm 22.0 N 10 12 1027.5 - 0.0 - - - - - - -
28/12:00pm 21.6 N 10 12 1027.9 - 0.0 - - - - - - -
28/11:30am 21.3 N 10 13 1028.0 - 0.0 - - - - - - -
28/11:00am 20.8 N 9 14 1028.2 - 0.0 - - - - - - -
28/10:30am 20.1 N 10 15 1028.2 - 0.0 - - - - - - -
28/10:00am 19.1 N 6 9 1028.5 - 0.0 - - - - - - -
28/09:30am 17.0 N 6 9 1028.6 - 0.0 - - - - - - -
28/09:00am 15.2 N 6 7 1028.4 - 0.2 - - - - - - -
28/08:30am 13.4 N 4 6 1028.2 - 0.2 - - - - - - -
28/08:00am 11.9 N 4 6 1027.9 - 0.2 - - - - - - -
28/07:30am 10.8 NNE 6 6 1027.5 - 0.2 - - - - - - -
28/07:00am 10.5 NNE 5 6 1027.5 - 0.2 - - - - - - -
28/06:30am 10.4 NNE 5 6 1027.2 - 0.2 - - - - - - -
28/06:00am 11.4 NE 5 6 1027.1 - 0.2 - - - - - - -
28/05:30am 11.6 ENE 3 5 1027.0 - 0.2 - - - - - - -
28/05:00am 11.5 ENE 3 5 1027.0 - 0.2 - - - - - - -
28/04:30am 11.4 ENE 3 4 1026.8 - 0.2 - - - - - - -
28/04:00am 11.4 NE 3 4 1026.7 - 0.2 - - - - - - -
28/03:30am 12.0 ENE 5 7 1026.7 - 0.2 - - - - - - -
28/03:00am 12.2 ENE 4 5 1027.0 - 0.2 - - - - - - -
28/02:30am 12.0 E 3 4 1027.2 - 0.2 - - - - - - -
28/02:00am 12.0 E 3 5 1027.4 - 0.2 - - - - - - -
28/01:30am 12.0 E 4 5 1027.4 - 0.0 - - - - - - -
28/01:00am 12.1 E 4 5 1027.6 - 0.0 - - - - - - -
28/12:30am 12.0 ENE 4 6 1027.6 - 0.0 - - - - - - -
28/12:00am 12.4 E 6 7 1027.9 - 0.0 - - - - - - -
 
Date/Time
CST
Temp

°C
Wind Pressure Rain
since 9am
mm
Weather Cloud Vis
km
Sea
Height
m
Swell
Dir
 
Speed
knots
Gust
knots
hPa Trend Height
m
Period
s
Dir
27/11:30pm 12.4 E 5 7 1028.0 - 0.0 - - - - - - -
27/11:00pm 12.3 ESE 5 6 1028.0 - 0.0 - - - - - - -
27/10:30pm 12.2 E 6 6 1028.0 - 0.0 - - - - - - -
27/10:00pm 12.7 E 4 5 1027.8 - 0.0 - - - - - - -
27/09:30pm 12.3 E 4 4 1027.9 - 0.0 - - - - - - -
27/09:00pm 12.7 SE 4 4 1027.7 - 0.0 - - - - - - -
27/08:30pm 12.5 SE 4 4 1027.5 - 0.0 - - - - - - -
27/08:00pm 12.7 SE 3 4 1027.4 - 0.0 - - - - - - -
27/07:30pm 12.7 SSE 3 4 1027.1 - 0.0 - - - - - - -
27/07:00pm 12.6 SE 4 5 1026.7 - 0.0 - - - - - - -
27/06:30pm 12.7 SSE 4 5 1026.3 - 0.0 - - - - - - -
27/06:00pm 13.3 SSE 4 5 1026.2 - 0.0 - - - - - - -
27/05:30pm 14.1 SSE 5 5 1026.0 - 0.0 - - - - - - -
27/05:00pm 14.9 S 5 6 1025.8 - 0.0 - - - - - - -
27/04:30pm 15.4 S 6 6 1025.6 - 0.0 - - - - - - -
27/04:00pm 15.9 SSW 5 7 1025.5 - 0.0 - - - - - - -
27/03:30pm 16.3 SSW 5 7 1025.6 - 0.0 - - - - - - -
27/03:00pm 16.5 S 5 7 1025.7 - 0.0 - - - - - - -
27/02:30pm 17.1 E 5 7 1025.4 - 0.0 - - - - - - -
27/02:00pm 16.7 E 4 6 1025.3 - 0.0 - - - - - - -
27/01:30pm 16.7 E 6 8 1025.4 - 0.0 - - - - - - -
27/01:00pm 16.3 E 6 7 1025.8 - 0.0 - - - - - - -
27/12:30pm 17.8 ESE 5 6 1026.3 - 0.0 - - - - - - -
27/12:00pm 17.4 ESE 4 5 1026.6 - 0.0 - - - - - - -
27/11:30am 15.8 E 3 5 1027.0 - 0.0 - - - - - - -
27/11:00am 15.4 E 4 4 1027.2 - 0.0 - - - - - - -
27/10:30am 14.8 E 3 4 1027.6 - 0.0 - - - - - - -
27/10:00am 14.7 E 2 3 1027.5 - 0.0 - - - - - - -
27/09:30am 14.1 ENE 3 4 1027.5 - 0.0 - - - - - - -
27/09:00am 13.1 NE 3 3 1027.4 - 0.2 - - - - - - -
27/08:30am 12.1 NE 3 5 1027.0 - 0.2 - - - - - - -
27/08:00am 11.7 NE 3 4 1026.7 - 0.2 - - - - - - -
27/07:30am 10.8 NE 3 4 1026.2 - 0.2 - - - - - - -
27/07:00am 10.8 ENE 4 5 1025.6 - 0.2 - - - - - - -
27/06:30am 11.5 ENE 4 7 1025.4 - 0.2 - - - - - - -
27/06:00am 11.4 ENE 6 7 1024.8 - 0.2 - - - - - - -
27/05:30am 10.7 NE 4 5 1024.9 - 0.2 - - - - - - -
27/05:00am 11.2 ENE 3 4 1024.9 - 0.2 - - - - - - -
27/04:30am 11.3 ENE 3 4 1024.7 - 0.2 - - - - - - -
27/04:00am 11.7 NE 5 7 1024.5 - 0.2 - - - - - - -
27/03:30am 12.4 ENE 10 12 1024.3 - 0.0 - - - - - - -
27/03:00am 12.4 ENE 8 10 1024.3 - 0.0 - - - - - - -
27/02:30am 12.4 ENE 7 10 1024.5 - 0.0 - - - - - - -
27/02:00am 12.6 ENE 10 14 1024.4 - 0.0 - - - - - - -
27/01:30am 12.4 ENE 10 13 1024.7 - 0.0 - - - - - - -
27/01:00am 11.9 E 7 9 1025.0 - 0.0 - - - - - - -
27/12:30am 11.4 ESE 6 7 1025.3 - 0.0 - - - - - - -
27/12:00am 11.8 E 5 6 1025.2 - 0.0 - - - - - - -
 
Date/Time
CST
Temp

°C
Wind Pressure Rain
since 9am
mm
Weather Cloud Vis
km
Sea
Height
m
Swell
Dir
 
Speed
knots
Gust
knots
hPa Trend Height
m
Period
s
Dir
26/11:30pm 12.0 E 8 10 1025.1 - 0.0 - - - - - - -
26/11:00pm 11.9 ENE 6 8 1025.2 - 0.0 - - - - - - -
26/10:30pm 12.2 ENE 10 12 1025.1 - 0.0 - - - - - - -
26/10:00pm 12.4 E 9 12 1025.1 - 0.0 - - - - - - -
26/09:30pm 12.6 ENE 9 13 1025.0 - 0.0 - - - - - - -
26/09:00pm 12.2 E 8 11 1025.0 - 0.0 - - - - - - -
26/08:30pm 11.7 E 8 9 1025.0 - 0.0 - - - - - - -
26/08:00pm 11.6 SE 5 6 1025.2 - 0.0 - - - - - - -
26/07:30pm 11.6 S 5 6 1025.5 - 0.0 - - - - - - -
26/07:00pm 11.8 ESE 4 5 1024.8 - 0.0 - - - - - - -
26/06:30pm 12.1 ESE 5 6 1024.5 - 0.0 - - - - - - -
26/06:00pm 12.4 E 5 6 1024.3 - 0.0 - - - - - - -
26/05:30pm 13.3 E 4 6 1024.2 - 0.0 - - - - - - -
26/05:00pm 13.9 E 5 7 1024.1 - 0.0 - - - - - - -
26/04:30pm 14.5 E 6 8 1024.1 - 0.0 - - - - - - -
26/04:00pm 15.1 E 6 8 1024.2 - 0.0 - - - - - - -
26/03:30pm 15.3 E 7 9 1024.2 - 0.0 - - - - - - -
26/03:00pm 15.4 E 8 10 1024.3 - 0.0 - - - - - - -
26/02:30pm 15.5 E 8 11 1024.5 - 0.0 - - - - - - -
26/02:00pm 15.4 E 9 11 1024.8 - 0.0 - - - - - - -
26/01:30pm 15.6 E 9 12 1024.9 - 0.0 - - - - - - -
26/01:00pm 14.9 E 10 13 1025.0 - 0.0 - - - - - - -
26/12:30pm 15.1 E 10 13 1025.4 - 0.0 - - - - - - -
26/12:00pm 14.9 E 10 13 1026.1 - 0.0 - - - - - - -
26/11:30am 14.7 E 10 13 1026.5 - 0.0 - - - - - - -
26/11:00am 14.6 E 9 12 1026.7 - 0.0 - - - - - - -
26/10:30am 14.3 E 8 11 1026.9 - 0.0 - - - - - - -
26/10:00am 14.3 E 8 10 1027.1 - 0.0 - - - - - - -
26/09:30am 13.8 E 8 11 1027.4 - 0.0 - - - - - - -
26/09:00am 13.5 E 8 11 1027.4 - 0.0 - - - - - - -

Other Formats:

Comma delimited format used in spreadsheet applications
http://www.bom.gov.au/fwo/IDS60701/IDS60701.95806.axf

JavaScript Object Notation format (JSON) in row-major order
http://www.bom.gov.au/fwo/IDS60701/IDS60701.95806.json